Time;durP1;ratioP1;P1;durP2;ratioP2;P2;SDS_P1;SDS_P2;PMS_P1;PMS_P2;Temp;Humidity;BMP_temperature;BMP_pressure;BME280_temperature;BME280_humidity;BME280_pressure;Samples;Min_cycle;Max_cycle;Signal;HPM_P1;HPM_P2
2022/06/15 00:01:15;;;;;;;17.98;11.43;;;14.10;99.90;;;;;;5069728;28;20048;-71
2022/06/15 00:03:41;;;;;;;19.08;11.68;;;13.90;99.90;;;;;;5056784;28;20055;-71
2022/06/15 00:06:10;;;;;;;20.35;12.00;;;14.00;99.90;;;;;;5058018;28;20425;-71
2022/06/15 00:08:37;;;;;;;25.38;12.82;;;13.90;99.90;;;;;;5074324;28;20250;-71
2022/06/15 00:11:14;;;;;;;23.73;12.35;;;13.90;99.90;;;;;;5073489;28;20495;-71
2022/06/15 00:13:40;;;;;;;18.27;12.25;;;13.90;99.90;;;;;;5074461;28;20045;-70
2022/06/15 00:16:06;;;;;;;20.75;11.40;;;14.00;99.90;;;;;;5074374;28;20403;-70
2022/06/15 00:18:33;;;;;;;19.25;11.65;;;14.00;99.90;;;;;;5057772;28;20040;-71
2022/06/15 00:20:59;;;;;;;14.80;11.23;;;13.90;99.90;;;;;;5056557;28;20047;-71
2022/06/15 00:23:27;;;;;;;20.70;11.13;;;14.00;99.90;;;;;;5057295;28;20051;-71
2022/06/15 00:25:53;;;;;;;14.50;11.10;;;13.90;99.90;;;;;;5074261;28;20040;-71
2022/06/15 00:28:19;;;;;;;17.02;10.80;;;14.60;99.90;;;;;;5057188;28;20127;-71
2022/06/15 00:30:49;;;;;;;19.02;11.00;;;13.80;99.90;;;;;;5056402;28;20075;-71
2022/06/15 00:33:15;;;;;;;16.42;9.65;;;13.90;99.90;;;;;;5073853;28;20295;-70
2022/06/15 00:35:41;;;;;;;14.05;8.65;;;14.20;99.90;;;;;;5074161;28;20106;-70
2022/06/15 00:38:09;;;;;;;14.48;8.88;;;13.90;99.90;;;;;;5057382;28;20738;-71
2022/06/15 00:40:35;;;;;;;12.85;8.18;;;13.90;99.90;;;;;;5056458;28;20323;-71
2022/06/15 00:43:01;;;;;;;10.88;7.60;;;13.80;99.90;;;;;;5056930;28;20048;-70
2022/06/15 00:45:27;;;;;;;13.13;8.75;;;13.80;99.90;;;;;;5056940;28;20057;-70
2022/06/15 00:47:53;;;;;;;12.35;6.95;;;13.80;99.90;;;;;;5073645;28;20036;-70
2022/06/15 00:50:23;;;;;;;12.25;7.07;;;13.90;99.90;;;;;;5056217;28;20127;-70
2022/06/15 00:53:01;;;;;;;15.95;7.32;;;13.70;99.90;;;;;;5056719;28;20038;-70
2022/06/15 00:55:33;;;;;;;12.00;7.05;;;13.90;99.90;;;;;;5073637;28;20086;-70
2022/06/15 00:58:02;;;;;;;11.00;7.32;;;13.70;99.90;;;;;;5073450;28;20115;-71
2022/06/15 01:00:27;;;;;;;9.85;7.47;;;13.80;99.90;;;;;;5056063;28;20068;-70
2022/06/15 01:02:53;;;;;;;11.32;7.60;;;13.70;99.90;;;;;;5073646;28;20502;-71
2022/06/15 01:05:24;;;;;;;11.70;8.35;;;13.80;99.90;;;;;;5056716;28;20044;-71
2022/06/15 01:08:16;;;;;;;12.57;8.50;;;13.80;99.90;;;;;;5073577;28;20405;-70
2022/06/15 01:11:08;;;;;;;9.23;7.05;;;13.70;99.90;;;;;;5055027;28;20083;-70
2022/06/15 01:14:00;;;;;;;12.15;7.13;;;13.60;99.90;;;;;;5072893;28;20113;-70
2022/06/15 01:16:55;;;;;;;10.20;7.25;;;13.80;99.90;;;;;;5069245;28;20137;-71
2022/06/15 01:19:36;;;;;;;11.88;7.70;;;13.80;99.90;;;;;;5072275;28;20078;-70
2022/06/15 01:22:35;;;;;;;12.57;8.27;;;13.90;99.90;;;;;;5073212;28;20038;-72
2022/06/15 01:25:24;;;;;;;11.93;7.47;;;13.70;99.90;;;;;;5072925;28;20510;-70
2022/06/15 01:27:56;;;;;;;11.25;7.07;;;13.50;99.90;;;;;;5073173;28;20119;-71
2022/06/15 01:30:29;;;;;;;10.52;7.25;;;13.60;99.90;;;;;;5071921;28;20044;-70
2022/06/15 01:32:57;;;;;;;;;;;13.90;99.90;;;;;;5056563;28;20036;-70
2022/06/15 01:35:45;;;;;;;15.43;7.20;;;13.60;99.90;;;;;;5056056;28;19923;-71
2022/06/15 01:38:25;;;;;;;12.85;7.55;;;13.60;99.90;;;;;;5057619;28;20036;-71
2022/06/15 01:41:15;;;;;;;12.25;6.85;;;13.50;99.90;;;;;;5075634;28;20497;-70
2022/06/15 01:43:51;;;;;;;12.45;7.15;;;13.60;99.90;;;;;;5059653;28;20060;-71
2022/06/15 01:46:17;;;;;;;11.30;6.85;;;13.70;99.90;;;;;;5056035;28;20123;-71
2022/06/15 01:48:45;;;;;;;11.77;6.43;;;13.50;99.90;;;;;;5072753;28;20090;-71
2022/06/15 01:51:22;;;;;;;10.35;7.32;;;13.80;99.90;;;;;;5072962;28;20044;-70
2022/06/15 01:53:53;;;;;;;10.23;7.30;;;;;;;;;;5072694;28;20095;-71
2022/06/15 01:56:22;;;;;;;12.10;7.88;;;;;;;;;;5072711;28;20043;-70
2022/06/15 01:58:52;;;;;;;11.82;7.97;;;;;;;;;;5072394;28;20521;-70
2022/06/15 02:01:21;;;;;;;12.73;7.93;;;;;;;;;;5071727;28;20049;-71
2022/06/15 02:03:54;;;;;;;12.95;8.10;;;;;;;;;;5072486;28;20052;-70
2022/06/15 02:06:20;;;;;;;;;;;;;;;;;;5056266;28;20486;-70
2022/06/15 02:09:07;;;;;;;15.15;8.15;;;;;;;;;;5055433;28;19962;-70
2022/06/15 02:11:38;;;;;;;12.65;7.57;;;;;;;;;;5072121;28;20406;-71
2022/06/15 02:14:22;;;;;;;12.73;8.18;;;;;;;;;;5072256;28;20041;-70
2022/06/15 02:16:53;;;;;;;11.38;7.47;;;;;;;;;;5055440;28;20067;-70
2022/06/15 02:19:24;;;;;;;11.68;6.93;;;;;;;;;;5071243;28;20060;-70
2022/06/15 02:21:51;;;;;;;11.38;7.60;;;;;;;;;;5055034;28;20506;-70
2022/06/15 02:24:19;;;;;;;12.32;6.82;;;;;;;;;;5055067;28;20036;-71
2022/06/15 02:26:45;;;;;;;12.80;7.22;;;;;;;;;;5071320;28;20086;-70
2022/06/15 02:29:17;;;;;;;12.00;7.43;;;;;;;;;;5054248;28;20127;-72
2022/06/15 02:31:43;;;;;;;10.43;6.60;;;;;;;;;;5071886;28;20098;-70
2022/06/15 02:34:09;;;;;;;12.40;6.72;;;;;;;;;;5054887;28;20040;-70
2022/06/15 02:36:35;;;;;;;11.25;7.13;;;;;;;;;;5054786;28;20048;-70
2022/06/15 02:39:03;;;;;;;12.00;6.90;;;;;;;;;;5071184;28;20032;-70
2022/06/15 02:41:29;;;;;;;12.13;7.20;;;;;;;;;;5054675;28;20515;-70
2022/06/15 02:43:57;;;;;;;12.02;6.78;;;;;;;;;;5071528;28;20045;-71
2022/06/15 02:46:24;;;;;;;12.23;7.30;;;;;;;;;;5055161;28;20055;-70
2022/06/15 02:48:50;;;;;;;11.93;7.90;;;;;;;;;;5071432;28;20132;-73
2022/06/15 02:51:32;;;;;;;12.75;7.55;;;;;;;;;;5070815;28;20098;-72
2022/06/15 02:54:01;;;;;;;11.40;6.65;;;;;;;;;;5054692;28;20394;-70
2022/06/15 02:56:28;;;;;;;13.82;7.30;;;;;;;;;;5071232;28;20036;-71
2022/06/15 02:58:57;;;;;;;10.75;6.93;;;;;;;;;;5054051;28;20127;-69
2022/06/15 03:01:24;;;;;;;11.55;6.78;;;;;;;;;;5053982;28;20123;-71
2022/06/15 03:03:50;;;;;;;12.27;6.95;;;;;;;;;;5054662;28;20048;-71
2022/06/15 03:06:17;;;;;;;11.65;7.05;;;;;;;;;;5071220;28;20036;-70
2022/06/15 03:08:43;;;;;;;9.52;6.93;;;;;;;;;;5054265;28;20127;-70
2022/06/15 03:11:10;;;;;;;12.23;6.15;;;;;;;;;;5053900;28;20090;-71
2022/06/15 03:13:37;;;;;;;10.35;6.57;;;;;;;;;;5054561;28;20106;-71
2022/06/15 03:16:03;;;;;;;10.50;6.07;;;;;;;;;;5054089;28;20124;-71
2022/06/15 03:18:30;;;;;;;9.32;6.22;;;;;;;;;;5071038;28;20078;-70
2022/06/15 03:21:00;;;;;;;14.68;6.50;;;;;;;;;;5070145;28;20055;-72
2022/06/15 03:23:27;;;;;;;9.93;6.13;;;;;;;;;;5070800;28;20040;-70
2022/06/15 03:25:56;;;;;;;13.23;6.15;;;;;;;;;;5054018;28;20098;-70
2022/06/15 03:28:23;;;;;;;12.05;6.25;;;;;;;;;;5053786;28;20041;-71
2022/06/15 03:30:49;;;;;;;9.05;6.57;;;;;;;;;;5052992;28;20040;-71
2022/06/15 03:33:16;;;;;;;11.23;6.00;;;;;;;;;;5070764;28;20040;-70
2022/06/15 03:35:42;;;;;;;9.90;5.95;;;;;;;;;;5053878;28;20044;-70
2022/06/15 03:38:09;;;;;;;12.95;6.35;;;;;;;;;;5053578;28;20036;-70
2022/06/15 03:40:46;;;;;;;11.20;6.00;;;;;;;;;;5069909;28;20044;-70
2022/06/15 03:43:12;;;;;;;10.98;6.05;;;;;;;;;;5070525;28;20043;-71
2022/06/15 03:45:38;;;;;;;10.13;6.10;;;;;;;;;;5070687;28;20182;-71
2022/06/15 03:48:05;;;;;;;16.05;7.43;;;;;;;;;;5053685;28;20044;-70
2022/06/15 03:50:31;;;;;;;7.00;5.32;;;;;;;;;;5069807;28;20561;-70
2022/06/15 03:52:58;;;;;;;8.55;6.40;;;;;;;;;;5070183;28;20048;-69
2022/06/15 03:55:24;;;;;;;10.10;6.18;;;;;;;;;;5053594;28;20043;-70
2022/06/15 03:57:50;;;;;;;11.55;5.90;;;;;;;;;;5070624;28;20036;-71
2022/06/15 04:00:18;;;;;;;9.00;6.13;;;;;;;;;;5071056;28;20036;-70
2022/06/15 04:02:45;;;;;;;6.70;5.50;;;;;;;;;;5071596;28;20072;-70
2022/06/15 04:05:22;;;;;;;8.68;4.95;;;;;;;;;;5053554;28;20066;-70
2022/06/15 04:10:33;;;;;;;10.18;5.40;;;;;;;;;;5069376;28;20045;-70
2022/06/15 04:12:59;;;;;;;11.00;5.68;;;;;;;;;;5070261;28;20072;-71
2022/06/15 04:15:25;;;;;;;12.50;5.95;;;;;;;;;;5070423;28;20040;-71
2022/06/15 04:17:51;;;;;;;12.50;6.00;;;;;;;;;;5053455;28;20032;-70
2022/06/15 04:20:32;;;;;;;7.10;5.25;;;;;;;;;;5052615;28;20131;-70
2022/06/15 04:23:02;;;;;;;9.32;5.82;;;;;;;;;;5053353;28;20040;-71
2022/06/15 04:25:29;;;;;;;14.98;7.22;;;;;;;;;;5070253;28;20059;-72
2022/06/15 04:27:55;;;;;;;9.82;6.53;;;;;;;;;;5070275;28;20036;-69
2022/06/15 04:30:21;;;;;;;10.70;5.97;;;;;;;;;;5052700;28;20608;-70
2022/06/15 04:32:48;;;;;;;12.10;6.43;;;;;;;;;;5053624;28;20040;-70
2022/06/15 04:35:14;;;;;;;8.80;6.70;;;;;;;;;;5053648;28;20044;-70
2022/06/15 04:37:40;;;;;;;14.30;6.72;;;;;;;;;;5053556;28;20083;-70
2022/06/15 04:40:07;;;;;;;12.55;7.18;;;;;;;;;;5069332;28;20403;-71
2022/06/15 04:42:33;;;;;;;11.55;6.85;;;;;;;;;;5071230;28;20052;-70
2022/06/15 04:44:59;;;;;;;11.82;7.43;;;;;;;;;;5069945;28;20049;-70
2022/06/15 04:47:25;;;;;;;12.65;7.78;;;;;;;;;;5053318;28;20109;-71
2022/06/15 04:49:51;;;;;;;17.98;9.10;;;;;;;;;;5071965;28;20257;-71
2022/06/15 04:52:17;;;;;;;12.10;6.85;;;;;;;;;;5056237;28;20127;-71
2022/06/15 04:54:43;;;;;;;12.05;7.75;;;;;;;;;;5056805;28;20117;-70
2022/06/15 04:57:09;;;;;;;11.30;7.47;;;;;;;;;;5056827;28;20044;-70
2022/06/15 04:59:35;;;;;;;16.63;7.50;;;;;;;;;;5056175;28;20036;-70
2022/06/15 05:02:01;;;;;;;9.13;7.00;;;;;;;;;;5056562;28;20436;-70
2022/06/15 05:04:27;;;;;;;13.60;7.00;;;;;;;;;;5073210;28;20033;-70
2022/06/15 05:06:53;;;;;;;11.45;7.45;;;;;;;;;;5073472;28;20186;-71
2022/06/15 05:09:20;;;;;;;9.23;6.93;;;;;;;;;;5072609;28;20147;-70
2022/06/15 05:11:46;;;;;;;16.15;7.30;;;;;;;;;;5056306;28;20322;-70
2022/06/15 05:14:12;;;;;;;15.75;7.95;;;;;;;;;;5073197;28;20040;-70
2022/06/15 05:16:38;;;;;;;17.58;8.05;;;;;;;;;;5056729;28;20049;-70
2022/06/15 05:19:04;;;;;;;12.77;6.82;;;;;;;;;;5055801;28;20641;-71
2022/06/15 05:21:30;;;;;;;9.50;6.13;;;;;;;;;;5073027;28;20068;-71
2022/06/15 05:23:57;;;;;;;12.00;6.65;;;;;;;;;;5056389;28;20044;-71
2022/06/15 05:26:24;;;;;;;12.00;6.45;;;;;;;;;;5056225;28;20110;-71
2022/06/15 05:28:51;;;;;;;8.38;5.80;;;;;;;;;;5072996;28;20040;-71
2022/06/15 05:31:20;;;;;;;9.43;7.22;;;;;;;;;;5072267;28;20480;-73
2022/06/15 05:33:53;;;;;;;11.55;6.10;;;;;;;;;;5056546;28;20044;-71
2022/06/15 05:36:20;;;;;;;10.20;6.68;;;;;;;;;;5073121;28;20426;-71
2022/06/15 05:38:46;;;;;;;11.95;6.78;;;;;;;;;;5053048;28;20076;-72
2022/06/15 05:41:12;;;;;;;11.10;6.00;;;;;;;;;;5047234;28;20102;-71
2022/06/15 05:43:41;;;;;;;12.43;6.00;;;;;;;;;;5057568;28;20421;-70
2022/06/15 05:46:14;;;;;;;14.68;6.35;;;;;;;;;;5040011;28;20047;-71
2022/06/15 05:48:40;;;;;;;10.73;6.47;;;;;;;;;;5050757;28;20155;-72
2022/06/15 05:51:06;;;;;;;8.90;6.20;;;;;;;;;;5058881;28;20125;-71
2022/06/15 05:53:32;;;;;;;14.13;7.07;;;;;;;;;;5036916;28;20498;-71
2022/06/15 05:55:58;;;;;;;12.15;6.07;;;;;;;;;;5060088;28;20082;-72
2022/06/15 05:58:24;;;;;;;14.55;7.00;;;;;;;;;;5044892;28;20041;-74
2022/06/15 06:00:50;;;;;;;11.70;6.93;;;;;;;;;;5041426;28;20037;-72
2022/06/15 06:03:16;;;;;;;13.65;6.70;;;;;;;;;;5059718;28;20210;-71
2022/06/15 06:05:43;;;;;;;12.50;5.70;;;;;;;;;;5036953;28;20044;-71
2022/06/15 06:08:09;;;;;;;9.38;6.05;;;;;;;;;;5059855;28;20113;-71
2022/06/15 06:10:45;;;;;;;11.27;6.13;;;;;;;;;;5052580;28;20041;-72
2022/06/15 06:13:14;;;;;;;12.48;6.22;;;;;;;;;;5066537;28;20449;-72
2022/06/15 06:15:41;;;;;;;13.23;5.65;;;;;;;;;;5042850;28;20033;-70
2022/06/15 06:18:16;;;;;;;11.52;5.05;;;;;;;;;;5045548;28;20068;-71
2022/06/15 06:20:43;;;;;;;13.82;5.50;;;;;;;;;;5067518;28;20084;-71
2022/06/15 06:23:08;;;;;;;10.23;4.85;;;16.20;99.90;;;;;;5060541;28;20071;-70
2022/06/15 06:25:34;;;;;;;8.93;4.93;;;16.20;99.90;;;;;;5059208;28;20455;-69
2022/06/15 06:28:00;;;;;;;10.40;5.10;;;16.40;99.90;;;;;;5045202;28;20266;-70
2022/06/15 06:30:25;;;;;;;8.63;5.15;;;16.30;99.90;;;;;;5043259;28;20560;-70
2022/06/15 06:32:51;;;;;;;13.05;5.60;;;16.80;99.90;;;;;;5053250;28;20394;-69
2022/06/15 06:35:17;;;;;;;14.45;5.00;;;16.60;99.90;;;;;;5035091;28;20407;-70
2022/06/15 06:37:44;;;;;;;11.05;4.97;;;16.70;99.90;;;;;;5051567;28;20033;-69
2022/06/15 06:40:15;;;;;;;10.07;3.90;;;16.60;99.90;;;;;;5034191;28;20037;-69
2022/06/15 06:42:41;;;;;;;11.77;4.38;;;17.00;99.90;;;;;;5052753;28;20522;-71
2022/06/15 06:45:09;;;;;;;7.53;4.35;;;17.10;99.90;;;;;;5034882;28;20128;-70
2022/06/15 06:47:35;;;;;;;8.65;3.72;;;17.00;99.90;;;;;;5042478;28;20127;-70
2022/06/15 06:50:00;;;;;;;7.78;3.40;;;17.10;99.90;;;;;;5044729;28;20037;-72
2022/06/15 06:52:26;;;;;;;5.68;3.38;;;17.30;99.90;;;;;;5069126;28;20517;-71
2022/06/15 06:54:52;;;;;;;7.00;3.10;;;17.30;99.90;;;;;;5071080;28;20059;-72
2022/06/15 06:57:17;;;;;;;7.88;3.90;;;17.50;99.90;;;;;;5071473;28;20032;-71
2022/06/15 06:59:44;;;;;;;7.75;3.90;;;17.50;99.90;;;;;;5070641;28;20037;-72
2022/06/15 07:02:10;;;;;;;9.40;3.80;;;17.70;99.90;;;;;;5071142;28;20085;-71
2022/06/15 07:04:36;;;;;;;6.55;3.97;;;17.70;99.90;;;;;;5071084;28;20029;-71
2022/06/15 07:07:02;;;;;;;9.75;3.35;;;18.00;99.90;;;;;;5071123;28;20036;-71
2022/06/15 07:09:29;;;;;;;11.85;5.50;;;18.10;99.90;;;;;;5075460;28;20035;-73
2022/06/15 07:11:55;;;;;;;6.45;2.92;;;18.40;99.90;;;;;;5074812;28;20039;-73
2022/06/15 07:14:21;;;;;;;7.88;3.30;;;18.60;99.90;;;;;;5096161;28;20029;-73
2022/06/15 07:16:47;;;;;;;9.13;3.03;;;18.60;99.90;;;;;;5090584;28;20076;-71
2022/06/15 07:19:13;;;;;;;8.80;3.70;;;18.90;99.90;;;;;;5056537;28;20040;-71
2022/06/15 07:21:40;;;;;;;8.93;2.85;;;18.70;99.90;;;;;;5071499;28;20036;-70
2022/06/15 07:24:06;;;;;;;8.77;3.35;;;18.60;99.90;;;;;;5065888;28;20043;-75
2022/06/15 07:26:36;;;;;;;14.23;4.03;;;18.50;99.90;;;;;;5077983;28;20032;-71
2022/06/15 07:29:02;;;;;;;9.98;3.40;;;18.60;99.90;;;;;;5077565;28;20020;-72
2022/06/15 07:31:31;;;;;;;5.88;3.45;;;18.60;99.90;;;;;;5087518;28;20115;-71
2022/06/15 07:33:57;;;;;;;11.15;5.00;;;19.00;99.90;;;;;;5070543;28;20048;-71
2022/06/15 07:36:24;;;;;;;7.28;3.95;;;19.30;99.90;;;;;;5072020;28;20029;-71
2022/06/15 07:38:53;;;;;;;9.57;2.53;;;19.30;99.90;;;;;;5071796;28;20040;-74
2022/06/15 07:41:19;;;;;;;3.88;2.20;;;19.50;99.90;;;;;;5053139;28;20039;-70
2022/06/15 07:43:45;;;;;;;11.43;3.20;;;19.50;99.90;;;;;;5070451;28;20494;-72
2022/06/15 07:46:11;;;;;;;9.00;3.42;;;19.40;99.90;;;;;;5070149;28;20051;-71
2022/06/15 07:51:23;;;;;;;4.00;2.47;;;19.10;99.90;;;;;;5068392;22;20074;-76
2022/06/15 07:53:48;;;;;;;8.93;3.10;;;19.10;99.90;;;;;;5055227;28;20450;-74
2022/06/15 07:56:14;;;;;;;7.32;3.90;;;19.00;99.90;;;;;;5056954;28;20036;-73
2022/06/15 07:58:40;;;;;;;7.82;3.55;;;18.90;99.90;;;;;;5073750;28;20036;-73
2022/06/15 08:01:05;;;;;;;8.07;4.70;;;18.70;99.90;;;;;;5055772;28;20112;-74
2022/06/15 08:03:31;;;;;;;8.98;4.20;;;18.40;99.90;;;;;;5073410;28;20093;-74
2022/06/15 08:05:56;;;;;;;7.53;4.30;;;18.70;99.90;;;;;;5073376;28;20040;-74
2022/06/15 08:08:24;;;;;;;11.65;4.60;;;19.20;99.90;;;;;;5056614;28;20118;-74
2022/06/15 08:10:50;;;;;;;8.15;4.45;;;18.40;99.90;;;;;;5055851;28;20032;-75
2022/06/15 08:13:16;;;;;;;9.30;4.05;;;18.60;99.90;;;;;;5056349;28;20101;-75
2022/06/15 08:15:45;;;;;;;7.43;4.25;;;18.20;99.90;;;;;;5073481;28;20093;-74
2022/06/15 08:18:16;;;;;;;8.73;3.85;;;18.20;99.90;;;;;;5073127;28;20036;-75
2022/06/15 08:20:58;;;;;;;6.65;3.47;;;18.70;99.90;;;;;;5055799;28;20044;-75
2022/06/15 08:23:29;;;;;;;9.20;3.22;;;18.80;99.90;;;;;;5074265;28;20044;-74
2022/06/15 08:25:58;;;;;;;8.52;3.15;;;18.70;99.90;;;;;;5077502;28;20036;-74
2022/06/15 08:28:28;;;;;;;4.13;3.13;;;19.10;99.90;;;;;;5077083;28;20123;-74
2022/06/15 08:30:54;;;;;;;7.15;3.40;;;19.20;99.90;;;;;;5076210;28;20093;-74
2022/06/15 08:33:21;;;;;;;5.55;3.05;;;19.30;99.90;;;;;;5077136;28;20069;-74
2022/06/15 08:35:47;;;;;;;10.75;3.45;;;19.40;99.90;;;;;;5077334;28;20173;-74
2022/06/15 08:38:17;;;;;;;6.93;3.60;;;19.70;99.90;;;;;;5060438;28;20110;-74
2022/06/15 08:40:50;;;;;;;6.78;3.40;;;19.70;99.90;;;;;;5059458;28;20035;-74
2022/06/15 08:43:31;;;;;;;4.70;2.88;;;19.90;99.90;;;;;;5040063;28;20486;-74
2022/06/15 08:46:13;;;;;;;6.43;2.60;;;19.70;99.90;;;;;;5040234;28;20044;-74
2022/06/15 08:48:58;;;;;;;5.38;2.28;;;20.00;99.90;;;;;;5040090;28;20498;-74
2022/06/15 08:51:36;;;;;;;5.53;2.72;;;20.00;99.90;;;;;;5039549;28;20551;-74
2022/06/15 08:54:04;;;;;;;5.05;2.28;;;20.10;99.90;;;;;;5056658;28;20413;-75
2022/06/15 08:56:41;;;;;;;6.45;2.47;;;19.90;99.90;;;;;;5040001;28;20040;-74
2022/06/15 08:59:28;;;;;;;6.53;2.63;;;19.90;99.90;;;;;;5039259;28;20086;-74
2022/06/15 09:02:12;;;;;;;10.10;3.00;;;20.10;99.90;;;;;;5039822;28;20498;-75
2022/06/15 09:05:06;;;;;;;11.80;2.63;;;19.90;99.90;;;;;;5039836;28;20494;-74
2022/06/15 09:08:00;;;;;;;6.25;2.20;;;20.10;99.90;;;;;;5039849;28;20131;-74
2022/06/15 09:10:50;;;;;;;7.30;2.85;;;20.40;99.90;;;;;;5038817;28;20123;-75
2022/06/15 09:13:29;;;;;;;7.25;3.17;;;20.40;99.90;;;;;;5039480;28;20048;-75
2022/06/15 09:16:12;;;;;;;5.65;2.60;;;19.70;99.90;;;;;;5039467;28;20036;-75
2022/06/15 09:18:46;;;;;;;8.07;2.85;;;19.80;99.90;;;;;;5039625;28;20036;-75
2022/06/15 09:21:26;;;;;;;6.43;2.92;;;20.20;99.90;;;;;;5038793;28;20048;-75
2022/06/15 09:24:03;;;;;;;8.55;3.22;;;19.70;99.90;;;;;;5056356;28;20051;-75
2022/06/15 09:26:35;;;;;;;9.25;3.10;;;19.40;99.90;;;;;;5056180;28;20162;-75
2022/06/15 09:29:10;;;;;;;7.18;2.78;;;19.20;99.90;;;;;;5055581;28;20131;-75
2022/06/15 09:31:49;;;;;;;7.03;3.08;;;19.40;99.90;;;;;;5055749;28;20126;-75
2022/06/15 09:34:39;;;;;;;8.07;3.25;;;20.10;99.90;;;;;;5055629;28;20032;-75
2022/06/15 09:37:15;;;;;;;6.55;2.63;;;19.50;99.90;;;;;;5059211;28;20556;-75
2022/06/15 09:39:41;;;;;;;7.38;3.08;;;20.00;99.90;;;;;;5056975;28;20032;-74
2022/06/15 09:42:18;;;;;;;5.47;2.55;;;20.80;99.90;;;;;;5081615;28;20486;-75
2022/06/15 09:45:08;;;;;;;5.18;2.55;;;19.90;99.90;;;;;;5063944;28;20079;-75
2022/06/15 09:48:01;;;;;;;5.07;2.40;;;20.10;99.90;;;;;;5057417;28;20036;-76
2022/06/15 09:50:54;;;;;;;6.75;2.97;;;20.70;99.90;;;;;;5072631;28;20032;-74
2022/06/15 09:53:29;;;;;;;3.97;2.08;;;21.30;99.90;;;;;;5058194;28;20052;-75
2022/06/15 09:56:04;;;;;;;3.55;2.03;;;21.50;99.90;;;;;;5055876;28;20037;-75
2022/06/15 09:58:34;;;;;;;5.78;2.53;;;;;;;;;;5071811;28;20513;-75
2022/06/15 10:01:00;;;;;;;9.43;2.78;;;21.60;99.90;;;;;;5071342;28;20070;-75
2022/06/15 10:03:36;;;;;;;12.25;3.22;;;22.00;99.90;;;;;;5072051;28;20055;-75
2022/06/15 10:06:28;;;;;;;3.50;2.42;;;22.10;99.90;;;;;;5072098;28;20036;-75
2022/06/15 10:08:56;;;;;;;9.27;2.33;;;21.40;99.90;;;;;;5082206;28;20048;-76
2022/06/15 10:11:29;;;;;;;2.78;2.15;;;21.40;99.90;;;;;;5054466;28;20040;-76
2022/06/15 10:13:55;;;;;;;6.05;2.25;;;21.10;99.90;;;;;;5055190;28;20044;-76
2022/06/15 10:16:23;;;;;;;5.00;2.20;;;20.50;99.90;;;;;;5055813;28;20093;-74
2022/06/15 10:18:52;;;;;;;6.68;2.60;;;20.60;99.90;;;;;;5074812;28;20554;-75
2022/06/15 10:21:20;;;;;;;5.60;2.45;;;21.30;99.90;;;;;;5092720;28;20066;-75
2022/06/15 10:23:49;;;;;;;6.63;2.50;;;21.40;99.90;;;;;;5056847;28;20435;-75
2022/06/15 10:26:45;;;;;;;5.55;2.53;;;21.70;99.90;;;;;;5093269;28;20044;-74
2022/06/15 10:29:18;;;;;;;6.75;3.42;;;21.20;99.90;;;;;;5063761;28;20062;-74
2022/06/15 10:31:56;;;;;;;8.02;3.38;;;20.80;99.90;;;;;;5092851;28;20106;-75
2022/06/15 10:34:27;;;;;;;4.57;2.60;;;21.00;99.90;;;;;;5057956;28;20126;-75
2022/06/15 10:36:55;;;;;;;4.63;2.55;;;20.70;99.90;;;;;;5093137;28;20028;-75
2022/06/15 10:39:50;;;;;;;6.40;3.22;;;20.20;99.90;;;;;;5074270;28;20094;-75
2022/06/15 10:42:24;;;;;;;6.03;3.13;;;20.10;99.90;;;;;;5078846;28;20043;-75
2022/06/15 10:45:01;;;;;;;6.03;2.90;;;20.00;99.90;;;;;;5092717;28;20032;-76
2022/06/15 10:47:40;;;;;;;7.07;3.08;;;20.50;99.90;;;;;;5073922;28;20059;-75
2022/06/15 10:50:17;;;;;;;8.02;3.10;;;20.50;99.90;;;;;;5087010;28;20036;-76
2022/06/15 10:52:52;;;;;;;7.38;2.40;;;20.90;99.90;;;;;;5076566;28;20032;-76
2022/06/15 11:04:07;;;;;;;6.82;3.10;;;21.00;99.90;;;;;;5069588;28;20047;-75
2022/06/15 11:06:45;;;;;;;4.45;2.35;;;21.80;99.90;;;;;;5080890;28;20032;-75
2022/06/15 11:09:39;;;;;;;4.28;2.30;;;23.00;99.90;;;;;;5071936;28;20969;-77
2022/06/15 11:12:21;;;;;;;7.78;3.05;;;22.10;99.90;;;;;;5081320;28;20028;-76
2022/06/15 11:14:55;;;;;;;4.97;2.50;;;22.00;99.90;;;;;;5085518;28;20043;-76
2022/06/15 11:20:44;;;;;;;9.52;3.10;;;22.10;99.90;;;;;;5080878;28;20119;-76
2022/06/15 11:23:37;;;;;;;6.45;3.55;;;21.90;99.90;;;;;;5069691;28;20039;-76
2022/06/15 11:29:24;;;;;;;4.95;2.75;;;21.30;99.90;;;;;;5090069;28;20036;-75
2022/06/15 11:31:51;;;;;;;8.52;3.10;;;22.30;99.90;;;;;;5091381;28;20059;-74
2022/06/15 11:34:24;;;;;;;7.78;2.90;;;22.30;99.90;;;;;;5075637;28;20040;-76
2022/06/15 11:36:58;;;;;;;4.22;2.45;;;22.20;99.90;;;;;;5071850;28;20112;-75
2022/06/15 11:39:25;;;;;;;5.72;2.83;;;22.50;99.90;;;;;;5078193;28;20485;-76
2022/06/15 11:41:55;;;;;;;5.18;3.35;;;22.50;99.90;;;;;;5092546;28;20115;-76
2022/06/15 11:44:28;;;;;;;6.40;2.65;;;22.40;99.40;;;;;;5075328;28;20074;-76
2022/06/15 11:47:22;;;;;;;3.70;2.10;;;21.50;99.60;;;;;;5085764;28;20035;-75
2022/06/15 11:50:08;;;;;;;3.17;2.20;;;21.90;99.90;;;;;;5111691;28;20114;-76
2022/06/15 11:52:54;;;;;;;5.18;3.20;;;22.10;99.40;;;;;;5095065;28;20426;-76
2022/06/15 11:55:29;;;;;;;5.07;3.20;;;22.40;99.80;;;;;;5102126;28;20028;-75
2022/06/15 11:58:25;;;;;;;9.43;3.40;;;21.50;99.70;;;;;;5088934;28;20043;-75
2022/06/15 12:01:00;;;;;;;7.40;2.85;;;22.10;99.90;;;;;;5072811;28;20068;-76
2022/06/15 12:03:41;;;;;;;7.80;3.30;;;20.70;99.90;;;;;;5057529;28;20425;-76
2022/06/15 12:06:28;;;;;;;4.78;3.00;;;20.90;99.90;;;;;;5060366;28;20047;-76
2022/06/15 12:09:23;;;;;;;6.93;3.10;;;20.70;99.90;;;;;;5075776;28;20047;-75
2022/06/15 12:15:28;;;;;;;6.57;3.08;;;20.90;99.90;;;;;;5091772;28;20059;-76
2022/06/15 12:18:00;;;;;;;6.15;3.60;;;21.60;99.90;;;;;;5058378;28;20044;-76
2022/06/15 12:20:49;;;;;;;7.40;2.78;;;21.90;99.60;;;;;;5082958;28;20490;-78
2022/06/15 12:23:58;;;;;;;5.15;2.75;;;22.00;99.60;;;;;;5071373;28;20036;-76
2022/06/15 12:26:39;;;;;;;5.60;3.22;;;22.10;99.60;;;;;;5071171;28;20064;-76
2022/06/15 12:29:07;;;;;;;6.60;2.88;;;22.50;99.70;;;;;;5070128;28;20102;-76
2022/06/15 12:31:45;;;;;;;5.97;2.85;;;22.70;99.30;;;;;;5070080;28;20036;-76
2022/06/15 12:34:22;;;;;;;4.20;2.58;;;22.60;99.90;;;;;;5055960;28;20044;-76
2022/06/15 12:37:06;;;;;;;5.93;2.90;;;23.20;99.40;;;;;;5073066;28;20068;-76
2022/06/15 12:39:45;;;;;;;7.00;3.40;;;22.60;99.50;;;;;;5070356;28;20043;-75
2022/06/15 12:42:14;;;;;;;9.07;3.30;;;22.90;99.40;;;;;;5072610;28;20055;-76
2022/06/15 12:45:05;;;;;;;12.38;4.00;;;22.00;99.60;;;;;;5072710;28;20143;-76
2022/06/15 12:47:32;;;;;;;7.45;3.08;;;22.30;99.20;;;;;;5072115;28;20035;-76
2022/06/15 12:50:29;;;;;;;5.03;3.25;;;22.10;99.50;;;;;;5080427;28;20086;-76
2022/06/15 12:53:24;;;;;;;5.65;2.97;;;21.80;99.90;;;;;;5068234;28;20075;-76
2022/06/15 12:56:08;;;;;;;4.53;2.65;;;21.50;99.60;;;;;;5068831;28;20495;-76
2022/06/15 12:58:57;;;;;;;6.20;2.90;;;20.90;99.60;;;;;;5070442;28;20039;-76
2022/06/15 13:01:31;;;;;;;5.07;2.75;;;20.80;99.90;;;;;;5069016;28;20037;-76
2022/06/15 13:04:32;;;;;;;8.73;3.38;;;21.00;99.90;;;;;;5070283;28;20081;-76
2022/06/15 13:07:19;;;;;;;5.90;3.42;;;21.00;99.90;;;;;;5038567;28;20105;-75
2022/06/15 13:10:07;;;;;;;6.53;3.33;;;20.80;99.90;;;;;;5069479;28;20064;-76
2022/06/15 13:12:54;;;;;;;3.75;2.83;;;20.40;99.90;;;;;;5072147;28;20045;-76
2022/06/15 13:15:35;;;;;;;6.00;3.13;;;20.60;99.90;;;;;;5043053;28;20125;-76
2022/06/15 13:18:13;;;;;;;5.93;3.85;;;21.40;99.90;;;;;;5073877;28;20048;-76
2022/06/15 13:20:48;;;;;;;8.23;3.83;;;20.80;99.90;;;;;;5071857;28;20029;-76
2022/06/15 13:23:16;;;;;;;6.18;4.10;;;21.90;99.90;;;;;;5073563;28;20389;-76
2022/06/15 13:25:58;;;;;;;5.65;2.90;;;21.20;99.90;;;;;;5074382;28;20032;-76
2022/06/15 13:28:31;;;;;;;5.72;3.28;;;21.80;99.90;;;;;;5076064;28;20082;-76
2022/06/15 13:31:01;;;;;;;9.82;4.05;;;21.50;99.70;;;;;;5074929;28;20081;-75
2022/06/15 13:33:46;;;;;;;6.47;3.17;;;21.40;99.80;;;;;;5075488;28;20043;-76
2022/06/15 13:36:11;;;;;;;6.50;3.40;;;21.70;99.90;;;;;;5059081;28;20120;-76
2022/06/15 13:38:39;;;;;;;9.20;2.92;;;22.60;99.90;;;;;;5092393;28;20071;-75
2022/06/15 13:41:05;;;;;;;6.72;2.65;;;22.10;99.90;;;;;;5090999;28;20109;-76
2022/06/15 13:43:32;;;;;;;6.15;3.38;;;23.30;99.90;;;;;;5092504;28;20493;-76
2022/06/15 13:46:03;;;;;;;6.90;2.75;;;22.40;99.40;;;;;;5092992;28;20036;-76
2022/06/15 13:48:40;;;;;;;5.47;3.25;;;22.60;99.40;;;;;;5079943;28;20490;-75
2022/06/15 13:51:17;;;;;;;3.33;2.83;;;22.70;98.60;;;;;;5072498;28;20039;-76
2022/06/15 13:54:20;;;;;;;10.95;3.00;;;22.70;99.00;;;;;;5099780;22;20044;-71
2022/06/15 13:56:53;;;;;;;;;;;22.70;98.60;;;;;;5072306;28;20028;-70
2022/06/15 13:59:42;;;;;;;7.43;3.23;;;22.00;98.80;;;;;;5087077;28;20288;-69
2022/06/15 14:02:48;;;;;;;5.80;2.55;;;21.30;98.30;;;;;;5094065;28;20485;-69
2022/06/15 14:05:33;;;;;;;5.25;2.97;;;21.70;98.90;;;;;;5073995;28;20040;-69
2022/06/15 14:08:35;;;;;;;6.45;2.92;;;22.00;99.40;;;;;;5093685;28;20035;-69
2022/06/15 14:11:38;;;;;;;6.00;2.70;;;21.90;98.90;;;;;;5057705;28;20036;-72